sensor_id;sensor_type;location;lat;lon;timestamp;P1;durP1;ratioP1;P2;durP2;ratioP2
33954;SDS011;20233;50.804;7.126;2023-08-07T00:00:08;10.73;;;2.08;;
33954;SDS011;20233;50.804;7.126;2023-08-07T00:02:34;10.40;;;1.52;;
33954;SDS011;20233;50.804;7.126;2023-08-07T00:05:00;13.73;;;1.55;;
33954;SDS011;20233;50.804;7.126;2023-08-07T00:07:26;12.88;;;1.52;;
33954;SDS011;20233;50.804;7.126;2023-08-07T00:09:52;10.90;;;1.58;;
33954;SDS011;20233;50.804;7.126;2023-08-07T00:12:17;13.88;;;1.50;;
33954;SDS011;20233;50.804;7.126;2023-08-07T00:14:43;8.40;;;1.25;;
33954;SDS011;20233;50.804;7.126;2023-08-07T00:17:08;9.55;;;1.17;;
33954;SDS011;20233;50.804;7.126;2023-08-07T00:19:35;7.20;;;1.30;;
33954;SDS011;20233;50.804;7.126;2023-08-07T00:22:01;7.18;;;1.35;;
33954;SDS011;20233;50.804;7.126;2023-08-07T00:24:26;14.43;;;1.95;;
33954;SDS011;20233;50.804;7.126;2023-08-07T00:26:52;9.80;;;1.60;;
33954;SDS011;20233;50.804;7.126;2023-08-07T00:29:17;9.63;;;1.67;;
33954;SDS011;20233;50.804;7.126;2023-08-07T00:31:43;13.82;;;1.30;;
33954;SDS011;20233;50.804;7.126;2023-08-07T00:34:08;8.75;;;1.27;;
33954;SDS011;20233;50.804;7.126;2023-08-07T00:36:34;11.40;;;1.70;;
33954;SDS011;20233;50.804;7.126;2023-08-07T00:39:00;9.05;;;1.10;;
33954;SDS011;20233;50.804;7.126;2023-08-07T00:41:28;8.68;;;1.20;;
33954;SDS011;20233;50.804;7.126;2023-08-07T00:43:54;10.57;;;2.90;;
33954;SDS011;20233;50.804;7.126;2023-08-07T00:46:19;8.55;;;1.63;;
33954;SDS011;20233;50.804;7.126;2023-08-07T00:48:45;15.05;;;2.72;;
33954;SDS011;20233;50.804;7.126;2023-08-07T00:51:11;9.25;;;1.50;;
33954;SDS011;20233;50.804;7.126;2023-08-07T00:53:37;10.30;;;1.63;;
33954;SDS011;20233;50.804;7.126;2023-08-07T00:56:04;10.10;;;1.50;;
33954;SDS011;20233;50.804;7.126;2023-08-07T00:58:30;10.25;;;1.77;;
33954;SDS011;20233;50.804;7.126;2023-08-07T01:00:57;8.07;;;1.30;;
33954;SDS011;20233;50.804;7.126;2023-08-07T01:03:23;9.73;;;1.77;;
33954;SDS011;20233;50.804;7.126;2023-08-07T01:05:49;12.50;;;1.70;;
33954;SDS011;20233;50.804;7.126;2023-08-07T01:08:15;8.85;;;2.25;;
33954;SDS011;20233;50.804;7.126;2023-08-07T01:16:34;9.25;;;1.40;;
33954;SDS011;20233;50.804;7.126;2023-08-07T01:19:03;9.68;;;1.63;;
33954;SDS011;20233;50.804;7.126;2023-08-07T01:21:33;12.50;;;2.10;;
33954;SDS011;20233;50.804;7.126;2023-08-07T01:23:59;12.43;;;2.08;;
33954;SDS011;20233;50.804;7.126;2023-08-07T01:26:24;8.32;;;1.83;;
33954;SDS011;20233;50.804;7.126;2023-08-07T01:28:57;14.02;;;1.70;;
33954;SDS011;20233;50.804;7.126;2023-08-07T01:31:31;9.02;;;1.50;;
33954;SDS011;20233;50.804;7.126;2023-08-07T01:34:04;15.00;;;1.80;;
33954;SDS011;20233;50.804;7.126;2023-08-07T01:36:33;9.10;;;2.10;;
33954;SDS011;20233;50.804;7.126;2023-08-07T01:38:59;9.50;;;1.80;;
33954;SDS011;20233;50.804;7.126;2023-08-07T01:41:26;11.80;;;2.20;;
33954;SDS011;20233;50.804;7.126;2023-08-07T01:43:52;14.90;;;2.05;;
33954;SDS011;20233;50.804;7.126;2023-08-07T01:46:19;13.70;;;2.00;;
33954;SDS011;20233;50.804;7.126;2023-08-07T01:48:45;11.95;;;1.98;;
33954;SDS011;20233;50.804;7.126;2023-08-07T01:51:10;18.45;;;1.80;;
33954;SDS011;20233;50.804;7.126;2023-08-07T01:53:36;11.85;;;1.60;;
33954;SDS011;20233;50.804;7.126;2023-08-07T01:56:02;13.40;;;1.83;;
33954;SDS011;20233;50.804;7.126;2023-08-07T01:58:27;16.13;;;3.55;;
33954;SDS011;20233;50.804;7.126;2023-08-07T02:00:53;12.77;;;2.13;;
33954;SDS011;20233;50.804;7.126;2023-08-07T02:03:19;13.93;;;1.67;;
33954;SDS011;20233;50.804;7.126;2023-08-07T02:05:46;10.98;;;2.05;;
33954;SDS011;20233;50.804;7.126;2023-08-07T02:08:12;12.15;;;1.83;;
33954;SDS011;20233;50.804;7.126;2023-08-07T02:10:37;9.35;;;1.55;;
33954;SDS011;20233;50.804;7.126;2023-08-07T02:13:03;9.30;;;1.98;;
33954;SDS011;20233;50.804;7.126;2023-08-07T02:15:28;10.63;;;1.63;;
33954;SDS011;20233;50.804;7.126;2023-08-07T02:17:54;7.72;;;1.98;;
33954;SDS011;20233;50.804;7.126;2023-08-07T02:20:19;10.80;;;1.98;;
33954;SDS011;20233;50.804;7.126;2023-08-07T02:22:45;12.68;;;2.00;;
33954;SDS011;20233;50.804;7.126;2023-08-07T02:25:11;8.65;;;2.03;;
33954;SDS011;20233;50.804;7.126;2023-08-07T02:27:36;8.48;;;2.25;;
33954;SDS011;20233;50.804;7.126;2023-08-07T02:30:02;12.23;;;2.20;;
33954;SDS011;20233;50.804;7.126;2023-08-07T02:32:29;11.05;;;1.77;;
33954;SDS011;20233;50.804;7.126;2023-08-07T02:34:55;15.07;;;1.85;;
33954;SDS011;20233;50.804;7.126;2023-08-07T02:37:21;7.13;;;1.65;;
33954;SDS011;20233;50.804;7.126;2023-08-07T02:39:46;10.82;;;1.63;;
33954;SDS011;20233;50.804;7.126;2023-08-07T02:42:12;10.13;;;1.75;;
33954;SDS011;20233;50.804;7.126;2023-08-07T02:44:37;10.38;;;2.17;;
33954;SDS011;20233;50.804;7.126;2023-08-07T02:47:03;11.75;;;1.70;;
33954;SDS011;20233;50.804;7.126;2023-08-07T02:49:29;10.73;;;2.20;;
33954;SDS011;20233;50.804;7.126;2023-08-07T02:51:54;13.05;;;2.15;;
33954;SDS011;20233;50.804;7.126;2023-08-07T02:54:20;8.27;;;1.60;;
33954;SDS011;20233;50.804;7.126;2023-08-07T02:56:45;14.02;;;2.00;;
33954;SDS011;20233;50.804;7.126;2023-08-07T02:59:11;7.82;;;1.52;;
33954;SDS011;20233;50.804;7.126;2023-08-07T03:01:36;6.72;;;1.48;;
33954;SDS011;20233;50.804;7.126;2023-08-07T03:04:02;13.82;;;2.25;;
33954;SDS011;20233;50.804;7.126;2023-08-07T03:06:28;10.10;;;2.00;;
33954;SDS011;20233;50.804;7.126;2023-08-07T03:08:53;12.02;;;1.70;;
33954;SDS011;20233;50.804;7.126;2023-08-07T03:11:19;11.27;;;2.40;;
33954;SDS011;20233;50.804;7.126;2023-08-07T03:13:44;8.43;;;1.80;;
33954;SDS011;20233;50.804;7.126;2023-08-07T03:16:10;7.93;;;1.55;;
33954;SDS011;20233;50.804;7.126;2023-08-07T03:18:36;10.55;;;2.50;;
33954;SDS011;20233;50.804;7.126;2023-08-07T03:21:01;11.23;;;3.13;;
33954;SDS011;20233;50.804;7.126;2023-08-07T03:23:27;11.35;;;2.28;;
33954;SDS011;20233;50.804;7.126;2023-08-07T03:26:07;9.23;;;1.67;;
33954;SDS011;20233;50.804;7.126;2023-08-07T03:28:34;11.45;;;2.15;;
33954;SDS011;20233;50.804;7.126;2023-08-07T03:31:00;8.43;;;2.13;;
33954;SDS011;20233;50.804;7.126;2023-08-07T03:33:26;9.13;;;1.70;;
33954;SDS011;20233;50.804;7.126;2023-08-07T03:35:52;7.90;;;2.17;;
33954;SDS011;20233;50.804;7.126;2023-08-07T03:38:17;8.98;;;2.08;;
33954;SDS011;20233;50.804;7.126;2023-08-07T03:40:43;9.45;;;2.17;;
33954;SDS011;20233;50.804;7.126;2023-08-07T03:43:09;11.27;;;2.63;;
33954;SDS011;20233;50.804;7.126;2023-08-07T03:45:34;13.95;;;2.22;;
33954;SDS011;20233;50.804;7.126;2023-08-07T03:48:00;9.05;;;1.92;;
33954;SDS011;20233;50.804;7.126;2023-08-07T03:50:26;13.43;;;2.30;;
33954;SDS011;20233;50.804;7.126;2023-08-07T03:52:51;12.50;;;2.85;;
33954;SDS011;20233;50.804;7.126;2023-08-07T03:55:17;12.90;;;2.20;;
33954;SDS011;20233;50.804;7.126;2023-08-07T03:57:43;8.30;;;1.92;;
33954;SDS011;20233;50.804;7.126;2023-08-07T04:00:09;12.30;;;1.92;;
33954;SDS011;20233;50.804;7.126;2023-08-07T04:02:35;9.30;;;1.98;;
33954;SDS011;20233;50.804;7.126;2023-08-07T04:05:00;8.07;;;1.25;;
33954;SDS011;20233;50.804;7.126;2023-08-07T04:07:26;10.32;;;2.05;;
33954;SDS011;20233;50.804;7.126;2023-08-07T04:09:51;10.13;;;2.08;;
33954;SDS011;20233;50.804;7.126;2023-08-07T04:12:17;10.82;;;2.13;;
33954;SDS011;20233;50.804;7.126;2023-08-07T04:14:42;13.98;;;2.25;;
33954;SDS011;20233;50.804;7.126;2023-08-07T04:17:08;10.88;;;1.63;;
33954;SDS011;20233;50.804;7.126;2023-08-07T04:19:34;9.02;;;2.33;;
33954;SDS011;20233;50.804;7.126;2023-08-07T04:22:00;8.20;;;1.88;;
33954;SDS011;20233;50.804;7.126;2023-08-07T04:24:26;10.93;;;2.10;;
33954;SDS011;20233;50.804;7.126;2023-08-07T04:26:51;9.02;;;1.60;;
33954;SDS011;20233;50.804;7.126;2023-08-07T04:29:18;8.13;;;1.65;;
33954;SDS011;20233;50.804;7.126;2023-08-07T04:31:43;10.82;;;2.13;;
33954;SDS011;20233;50.804;7.126;2023-08-07T04:34:09;7.20;;;1.65;;
33954;SDS011;20233;50.804;7.126;2023-08-07T04:36:35;14.65;;;2.63;;
33954;SDS011;20233;50.804;7.126;2023-08-07T04:39:01;10.73;;;2.25;;
33954;SDS011;20233;50.804;7.126;2023-08-07T04:41:27;9.23;;;1.90;;
33954;SDS011;20233;50.804;7.126;2023-08-07T04:43:52;10.52;;;2.20;;
33954;SDS011;20233;50.804;7.126;2023-08-07T04:46:18;8.73;;;2.72;;
33954;SDS011;20233;50.804;7.126;2023-08-07T04:48:43;10.18;;;2.50;;
33954;SDS011;20233;50.804;7.126;2023-08-07T04:51:09;8.40;;;2.45;;
33954;SDS011;20233;50.804;7.126;2023-08-07T04:53:35;8.38;;;2.47;;
33954;SDS011;20233;50.804;7.126;2023-08-07T04:56:02;7.93;;;2.70;;
33954;SDS011;20233;50.804;7.126;2023-08-07T04:58:27;9.27;;;2.20;;
33954;SDS011;20233;50.804;7.126;2023-08-07T05:00:56;7.53;;;2.28;;
33954;SDS011;20233;50.804;7.126;2023-08-07T05:03:22;14.57;;;2.08;;
33954;SDS011;20233;50.804;7.126;2023-08-07T05:05:49;8.80;;;2.47;;
33954;SDS011;20233;50.804;7.126;2023-08-07T05:08:16;7.13;;;2.30;;
33954;SDS011;20233;50.804;7.126;2023-08-07T05:10:43;10.43;;;2.10;;
33954;SDS011;20233;50.804;7.126;2023-08-07T05:13:09;9.23;;;2.47;;
33954;SDS011;20233;50.804;7.126;2023-08-07T05:15:35;12.23;;;2.65;;
33954;SDS011;20233;50.804;7.126;2023-08-07T05:18:02;12.85;;;2.97;;
33954;SDS011;20233;50.804;7.126;2023-08-07T05:20:28;9.45;;;2.05;;
33954;SDS011;20233;50.804;7.126;2023-08-07T05:22:55;12.27;;;2.40;;
33954;SDS011;20233;50.804;7.126;2023-08-07T05:25:21;11.60;;;2.45;;
33954;SDS011;20233;50.804;7.126;2023-08-07T05:27:47;15.30;;;2.25;;
33954;SDS011;20233;50.804;7.126;2023-08-07T05:30:13;11.18;;;2.08;;
33954;SDS011;20233;50.804;7.126;2023-08-07T05:32:40;12.25;;;3.25;;
33954;SDS011;20233;50.804;7.126;2023-08-07T05:35:07;9.02;;;2.17;;
33954;SDS011;20233;50.804;7.126;2023-08-07T05:37:35;14.77;;;2.35;;
33954;SDS011;20233;50.804;7.126;2023-08-07T05:40:02;14.57;;;2.22;;
33954;SDS011;20233;50.804;7.126;2023-08-07T05:42:29;9.35;;;1.90;;
33954;SDS011;20233;50.804;7.126;2023-08-07T05:44:55;9.45;;;2.25;;
33954;SDS011;20233;50.804;7.126;2023-08-07T05:47:21;8.57;;;2.85;;
33954;SDS011;20233;50.804;7.126;2023-08-07T05:49:48;9.65;;;1.98;;
33954;SDS011;20233;50.804;7.126;2023-08-07T05:52:14;5.82;;;1.30;;
33954;SDS011;20233;50.804;7.126;2023-08-07T05:54:43;10.93;;;1.73;;
33954;SDS011;20233;50.804;7.126;2023-08-07T05:57:09;11.07;;;1.67;;
33954;SDS011;20233;50.804;7.126;2023-08-07T05:59:36;11.00;;;1.95;;
33954;SDS011;20233;50.804;7.126;2023-08-07T06:02:02;12.18;;;1.90;;
33954;SDS011;20233;50.804;7.126;2023-08-07T06:04:29;8.98;;;1.70;;
33954;SDS011;20233;50.804;7.126;2023-08-07T06:06:55;10.48;;;2.17;;
33954;SDS011;20233;50.804;7.126;2023-08-07T06:09:20;6.85;;;1.20;;
33954;SDS011;20233;50.804;7.126;2023-08-07T06:11:47;13.60;;;2.25;;
33954;SDS011;20233;50.804;7.126;2023-08-07T06:14:15;10.38;;;1.73;;
33954;SDS011;20233;50.804;7.126;2023-08-07T06:16:42;6.55;;;1.15;;
33954;SDS011;20233;50.804;7.126;2023-08-07T06:19:08;7.45;;;1.60;;
33954;SDS011;20233;50.804;7.126;2023-08-07T06:21:35;11.63;;;1.95;;
33954;SDS011;20233;50.804;7.126;2023-08-07T06:24:01;8.50;;;1.40;;
33954;SDS011;20233;50.804;7.126;2023-08-07T06:26:28;5.43;;;1.58;;
33954;SDS011;20233;50.804;7.126;2023-08-07T06:28:59;10.38;;;1.65;;
33954;SDS011;20233;50.804;7.126;2023-08-07T06:31:32;6.65;;;1.50;;
33954;SDS011;20233;50.804;7.126;2023-08-07T06:33:58;8.50;;;1.90;;
33954;SDS011;20233;50.804;7.126;2023-08-07T06:36:25;7.68;;;1.70;;
33954;SDS011;20233;50.804;7.126;2023-08-07T06:38:51;11.57;;;2.08;;
33954;SDS011;20233;50.804;7.126;2023-08-07T06:41:17;8.57;;;2.10;;
33954;SDS011;20233;50.804;7.126;2023-08-07T06:43:45;8.35;;;1.50;;
33954;SDS011;20233;50.804;7.126;2023-08-07T06:46:11;10.30;;;1.70;;
33954;SDS011;20233;50.804;7.126;2023-08-07T06:48:36;9.00;;;2.15;;
33954;SDS011;20233;50.804;7.126;2023-08-07T06:51:03;13.20;;;1.75;;
33954;SDS011;20233;50.804;7.126;2023-08-07T06:53:29;6.68;;;2.03;;
33954;SDS011;20233;50.804;7.126;2023-08-07T06:55:54;10.68;;;2.00;;
33954;SDS011;20233;50.804;7.126;2023-08-07T06:58:20;10.43;;;2.28;;
33954;SDS011;20233;50.804;7.126;2023-08-07T07:00:47;9.15;;;2.38;;
33954;SDS011;20233;50.804;7.126;2023-08-07T07:03:14;9.40;;;2.08;;
33954;SDS011;20233;50.804;7.126;2023-08-07T07:05:40;11.40;;;1.88;;
33954;SDS011;20233;50.804;7.126;2023-08-07T07:08:08;7.03;;;1.85;;
33954;SDS011;20233;50.804;7.126;2023-08-07T07:10:35;9.00;;;2.25;;
33954;SDS011;20233;50.804;7.126;2023-08-07T07:13:02;8.88;;;2.38;;
33954;SDS011;20233;50.804;7.126;2023-08-07T07:15:30;11.50;;;3.10;;
33954;SDS011;20233;50.804;7.126;2023-08-07T07:17:57;10.95;;;2.42;;
33954;SDS011;20233;50.804;7.126;2023-08-07T07:20:23;12.43;;;2.95;;
33954;SDS011;20233;50.804;7.126;2023-08-07T07:22:50;11.82;;;2.13;;
33954;SDS011;20233;50.804;7.126;2023-08-07T07:25:17;9.05;;;1.80;;
33954;SDS011;20233;50.804;7.126;2023-08-07T07:27:43;6.40;;;2.15;;
33954;SDS011;20233;50.804;7.126;2023-08-07T07:30:09;7.47;;;1.83;;
33954;SDS011;20233;50.804;7.126;2023-08-07T07:32:36;6.28;;;1.80;;
33954;SDS011;20233;50.804;7.126;2023-08-07T07:35:02;7.55;;;1.95;;
33954;SDS011;20233;50.804;7.126;2023-08-07T07:37:29;8.50;;;1.60;;
33954;SDS011;20233;50.804;7.126;2023-08-07T07:39:56;7.40;;;1.30;;
33954;SDS011;20233;50.804;7.126;2023-08-07T07:42:22;13.27;;;1.80;;
33954;SDS011;20233;50.804;7.126;2023-08-07T07:44:48;10.20;;;2.65;;
33954;SDS011;20233;50.804;7.126;2023-08-07T07:47:17;12.00;;;2.47;;
33954;SDS011;20233;50.804;7.126;2023-08-07T07:49:45;7.88;;;1.90;;
33954;SDS011;20233;50.804;7.126;2023-08-07T07:52:15;9.05;;;1.85;;
33954;SDS011;20233;50.804;7.126;2023-08-07T07:54:40;12.35;;;1.98;;
33954;SDS011;20233;50.804;7.126;2023-08-07T07:57:06;13.40;;;2.20;;
33954;SDS011;20233;50.804;7.126;2023-08-07T07:59:33;9.15;;;2.63;;
33954;SDS011;20233;50.804;7.126;2023-08-07T08:01:59;12.52;;;2.70;;
33954;SDS011;20233;50.804;7.126;2023-08-07T08:04:25;11.57;;;2.10;;
33954;SDS011;20233;50.804;7.126;2023-08-07T08:06:51;10.25;;;3.03;;
33954;SDS011;20233;50.804;7.126;2023-08-07T08:09:17;10.38;;;2.38;;
33954;SDS011;20233;50.804;7.126;2023-08-07T08:11:44;9.50;;;1.80;;
33954;SDS011;20233;50.804;7.126;2023-08-07T08:14:10;5.43;;;1.50;;
33954;SDS011;20233;50.804;7.126;2023-08-07T08:16:36;6.82;;;2.00;;
33954;SDS011;20233;50.804;7.126;2023-08-07T08:19:02;7.07;;;1.58;;
33954;SDS011;20233;50.804;7.126;2023-08-07T08:21:29;8.77;;;2.00;;
33954;SDS011;20233;50.804;7.126;2023-08-07T08:23:56;8.80;;;1.73;;
33954;SDS011;20233;50.804;7.126;2023-08-07T08:26:22;8.20;;;2.00;;
33954;SDS011;20233;50.804;7.126;2023-08-07T08:28:48;6.85;;;1.50;;
33954;SDS011;20233;50.804;7.126;2023-08-07T08:31:13;11.25;;;2.55;;
33954;SDS011;20233;50.804;7.126;2023-08-07T08:33:39;11.43;;;1.85;;
33954;SDS011;20233;50.804;7.126;2023-08-07T08:36:05;7.03;;;1.60;;
33954;SDS011;20233;50.804;7.126;2023-08-07T08:38:30;10.07;;;1.90;;
33954;SDS011;20233;50.804;7.126;2023-08-07T08:40:58;12.35;;;1.92;;
33954;SDS011;20233;50.804;7.126;2023-08-07T08:43:27;12.10;;;2.60;;
33954;SDS011;20233;50.804;7.126;2023-08-07T08:45:58;12.80;;;1.95;;
33954;SDS011;20233;50.804;7.126;2023-08-07T08:48:26;11.18;;;1.80;;
33954;SDS011;20233;50.804;7.126;2023-08-07T08:50:56;9.93;;;2.70;;
33954;SDS011;20233;50.804;7.126;2023-08-07T08:53:22;12.32;;;2.10;;
33954;SDS011;20233;50.804;7.126;2023-08-07T08:55:48;9.82;;;1.90;;
33954;SDS011;20233;50.804;7.126;2023-08-07T08:58:15;8.40;;;1.63;;
33954;SDS011;20233;50.804;7.126;2023-08-07T09:00:42;9.32;;;1.63;;
33954;SDS011;20233;50.804;7.126;2023-08-07T09:03:08;7.38;;;2.00;;
33954;SDS011;20233;50.804;7.126;2023-08-07T09:05:33;9.75;;;1.85;;
33954;SDS011;20233;50.804;7.126;2023-08-07T09:08:00;9.02;;;2.28;;
33954;SDS011;20233;50.804;7.126;2023-08-07T09:10:26;10.70;;;1.95;;
33954;SDS011;20233;50.804;7.126;2023-08-07T09:13:02;9.10;;;1.98;;
33954;SDS011;20233;50.804;7.126;2023-08-07T09:15:30;10.07;;;1.92;;
33954;SDS011;20233;50.804;7.126;2023-08-07T09:17:57;9.70;;;2.03;;
33954;SDS011;20233;50.804;7.126;2023-08-07T09:20:27;11.15;;;2.15;;
33954;SDS011;20233;50.804;7.126;2023-08-07T09:22:53;6.57;;;1.80;;
33954;SDS011;20233;50.804;7.126;2023-08-07T09:25:29;6.13;;;1.45;;
33954;SDS011;20233;50.804;7.126;2023-08-07T09:27:56;7.50;;;2.20;;
33954;SDS011;20233;50.804;7.126;2023-08-07T09:30:29;12.00;;;1.87;;
33954;SDS011;20233;50.804;7.126;2023-08-07T09:32:58;4.85;;;1.35;;
33954;SDS011;20233;50.804;7.126;2023-08-07T09:35:25;6.68;;;1.98;;
33954;SDS011;20233;50.804;7.126;2023-08-07T09:37:51;12.45;;;2.03;;
33954;SDS011;20233;50.804;7.126;2023-08-07T09:40:17;7.35;;;1.40;;
33954;SDS011;20233;50.804;7.126;2023-08-07T09:42:43;4.55;;;1.23;;
33954;SDS011;20233;50.804;7.126;2023-08-07T09:45:19;7.15;;;1.45;;
33954;SDS011;20233;50.804;7.126;2023-08-07T09:47:59;7.15;;;1.13;;
33954;SDS011;20233;50.804;7.126;2023-08-07T09:50:27;13.73;;;1.70;;
33954;SDS011;20233;50.804;7.126;2023-08-07T09:52:53;7.30;;;1.50;;
33954;SDS011;20233;50.804;7.126;2023-08-07T09:55:20;6.78;;;1.63;;
33954;SDS011;20233;50.804;7.126;2023-08-07T09:57:46;7.13;;;1.33;;
33954;SDS011;20233;50.804;7.126;2023-08-07T10:00:13;6.78;;;1.23;;
33954;SDS011;20233;50.804;7.126;2023-08-07T10:02:41;5.72;;;0.93;;
33954;SDS011;20233;50.804;7.126;2023-08-07T10:05:08;9.55;;;1.98;;
33954;SDS011;20233;50.804;7.126;2023-08-07T10:07:37;9.25;;;1.65;;
33954;SDS011;20233;50.804;7.126;2023-08-07T10:10:03;7.38;;;1.40;;
33954;SDS011;20233;50.804;7.126;2023-08-07T10:12:29;5.47;;;1.35;;
33954;SDS011;20233;50.804;7.126;2023-08-07T10:14:55;6.68;;;1.55;;
33954;SDS011;20233;50.804;7.126;2023-08-07T10:17:24;9.75;;;1.77;;
33954;SDS011;20233;50.804;7.126;2023-08-07T10:19:50;5.38;;;1.52;;
33954;SDS011;20233;50.804;7.126;2023-08-07T10:22:17;9.73;;;1.38;;
33954;SDS011;20233;50.804;7.126;2023-08-07T10:24:45;6.03;;;1.45;;
33954;SDS011;20233;50.804;7.126;2023-08-07T10:27:13;5.75;;;2.08;;
33954;SDS011;20233;50.804;7.126;2023-08-07T10:29:42;4.95;;;1.10;;
33954;SDS011;20233;50.804;7.126;2023-08-07T10:32:10;5.57;;;1.40;;
33954;SDS011;20233;50.804;7.126;2023-08-07T10:34:37;11.07;;;2.42;;
33954;SDS011;20233;50.804;7.126;2023-08-07T10:37:06;9.35;;;1.55;;
33954;SDS011;20233;50.804;7.126;2023-08-07T10:39:32;7.40;;;1.10;;
33954;SDS011;20233;50.804;7.126;2023-08-07T10:41:58;8.88;;;1.30;;
33954;SDS011;20233;50.804;7.126;2023-08-07T10:44:26;7.35;;;1.30;;
33954;SDS011;20233;50.804;7.126;2023-08-07T10:46:58;6.80;;;1.00;;
33954;SDS011;20233;50.804;7.126;2023-08-07T10:49:32;9.77;;;1.70;;
33954;SDS011;20233;50.804;7.126;2023-08-07T10:52:08;7.00;;;1.30;;
33954;SDS011;20233;50.804;7.126;2023-08-07T10:54:48;7.25;;;1.45;;
33954;SDS011;20233;50.804;7.126;2023-08-07T10:57:15;12.63;;;1.60;;
33954;SDS011;20233;50.804;7.126;2023-08-07T10:59:49;4.90;;;1.30;;
33954;SDS011;20233;50.804;7.126;2023-08-07T11:02:24;6.47;;;1.08;;
33954;SDS011;20233;50.804;7.126;2023-08-07T11:04:51;6.07;;;0.80;;
33954;SDS011;20233;50.804;7.126;2023-08-07T11:07:27;5.90;;;1.40;;
33954;SDS011;20233;50.804;7.126;2023-08-07T11:09:54;4.03;;;0.70;;
33954;SDS011;20233;50.804;7.126;2023-08-07T11:12:28;6.85;;;0.90;;
33954;SDS011;20233;50.804;7.126;2023-08-07T11:14:54;5.43;;;1.08;;
33954;SDS011;20233;50.804;7.126;2023-08-07T11:17:26;10.80;;;1.45;;
33954;SDS011;20233;50.804;7.126;2023-08-07T11:19:53;7.60;;;1.55;;
33954;SDS011;20233;50.804;7.126;2023-08-07T11:22:20;7.63;;;1.50;;
33954;SDS011;20233;50.804;7.126;2023-08-07T11:24:46;10.00;;;1.10;;
33954;SDS011;20233;50.804;7.126;2023-08-07T11:27:12;3.83;;;0.60;;
33954;SDS011;20233;50.804;7.126;2023-08-07T11:29:38;5.80;;;1.10;;
33954;SDS011;20233;50.804;7.126;2023-08-07T11:32:04;5.28;;;1.30;;
33954;SDS011;20233;50.804;7.126;2023-08-07T11:34:30;7.43;;;0.95;;
33954;SDS011;20233;50.804;7.126;2023-08-07T11:36:56;7.10;;;1.30;;
33954;SDS011;20233;50.804;7.126;2023-08-07T11:39:22;9.95;;;1.35;;
33954;SDS011;20233;50.804;7.126;2023-08-07T11:41:52;4.68;;;0.80;;
33954;SDS011;20233;50.804;7.126;2023-08-07T11:44:18;10.63;;;1.50;;
33954;SDS011;20233;50.804;7.126;2023-08-07T11:46:44;4.32;;;0.77;;
33954;SDS011;20233;50.804;7.126;2023-08-07T11:49:11;4.60;;;0.90;;
33954;SDS011;20233;50.804;7.126;2023-08-07T11:51:37;6.78;;;1.55;;
33954;SDS011;20233;50.804;7.126;2023-08-07T11:54:03;7.75;;;1.33;;
33954;SDS011;20233;50.804;7.126;2023-08-07T11:56:29;5.30;;;0.63;;
33954;SDS011;20233;50.804;7.126;2023-08-07T11:58:54;5.40;;;0.80;;
33954;SDS011;20233;50.804;7.126;2023-08-07T12:01:22;5.05;;;1.17;;
33954;SDS011;20233;50.804;7.126;2023-08-07T12:06:33;9.38;;;0.90;;
33954;SDS011;20233;50.804;7.126;2023-08-07T12:09:00;13.68;;;1.00;;
33954;SDS011;20233;50.804;7.126;2023-08-07T12:11:28;12.45;;;1.13;;
33954;SDS011;20233;50.804;7.126;2023-08-07T12:13:54;5.32;;;0.70;;
33954;SDS011;20233;50.804;7.126;2023-08-07T12:16:20;6.32;;;1.10;;
33954;SDS011;20233;50.804;7.126;2023-08-07T12:18:49;7.78;;;0.95;;
33954;SDS011;20233;50.804;7.126;2023-08-07T12:21:16;6.53;;;1.20;;
33954;SDS011;20233;50.804;7.126;2023-08-07T12:23:48;6.15;;;0.80;;
33954;SDS011;20233;50.804;7.126;2023-08-07T12:26:15;8.05;;;0.80;;
33954;SDS011;20233;50.804;7.126;2023-08-07T12:28:41;4.88;;;0.68;;
33954;SDS011;20233;50.804;7.126;2023-08-07T12:31:07;3.55;;;0.52;;
33954;SDS011;20233;50.804;7.126;2023-08-07T12:33:33;8.02;;;0.77;;
33954;SDS011;20233;50.804;7.126;2023-08-07T12:35:59;4.93;;;0.65;;
33954;SDS011;20233;50.804;7.126;2023-08-07T12:38:26;5.57;;;0.63;;
33954;SDS011;20233;50.804;7.126;2023-08-07T12:40:52;6.05;;;0.80;;
33954;SDS011;20233;50.804;7.126;2023-08-07T12:43:18;4.95;;;0.57;;
33954;SDS011;20233;50.804;7.126;2023-08-07T12:45:43;4.15;;;0.60;;
33954;SDS011;20233;50.804;7.126;2023-08-07T12:48:09;5.32;;;0.93;;
33954;SDS011;20233;50.804;7.126;2023-08-07T12:50:35;6.25;;;0.80;;
33954;SDS011;20233;50.804;7.126;2023-08-07T12:53:01;7.15;;;0.68;;
33954;SDS011;20233;50.804;7.126;2023-08-07T12:55:27;3.58;;;1.08;;
33954;SDS011;20233;50.804;7.126;2023-08-07T12:57:54;7.55;;;0.70;;
33954;SDS011;20233;50.804;7.126;2023-08-07T13:00:20;8.95;;;0.60;;
33954;SDS011;20233;50.804;7.126;2023-08-07T13:02:47;4.05;;;0.60;;
33954;SDS011;20233;50.804;7.126;2023-08-07T13:05:14;4.32;;;0.93;;
33954;SDS011;20233;50.804;7.126;2023-08-07T13:07:41;4.93;;;0.90;;
33954;SDS011;20233;50.804;7.126;2023-08-07T13:10:08;4.93;;;0.80;;
33954;SDS011;20233;50.804;7.126;2023-08-07T13:12:35;5.80;;;2.25;;
33954;SDS011;20233;50.804;7.126;2023-08-07T13:15:02;3.33;;;0.60;;
33954;SDS011;20233;50.804;7.126;2023-08-07T13:17:30;8.82;;;1.45;;
33954;SDS011;20233;50.804;7.126;2023-08-07T13:19:56;6.40;;;1.00;;
33954;SDS011;20233;50.804;7.126;2023-08-07T13:22:22;12.45;;;2.17;;
33954;SDS011;20233;50.804;7.126;2023-08-07T13:24:47;4.10;;;0.57;;
33954;SDS011;20233;50.804;7.126;2023-08-07T13:27:13;8.65;;;0.82;;
33954;SDS011;20233;50.804;7.126;2023-08-07T13:29:38;4.22;;;0.57;;
33954;SDS011;20233;50.804;7.126;2023-08-07T13:32:05;10.30;;;1.27;;
33954;SDS011;20233;50.804;7.126;2023-08-07T13:34:35;4.70;;;0.70;;
33954;SDS011;20233;50.804;7.126;2023-08-07T13:37:01;10.80;;;0.93;;
33954;SDS011;20233;50.804;7.126;2023-08-07T13:39:27;5.30;;;0.60;;
33954;SDS011;20233;50.804;7.126;2023-08-07T13:41:53;3.65;;;0.60;;
33954;SDS011;20233;50.804;7.126;2023-08-07T13:44:18;5.93;;;0.68;;
33954;SDS011;20233;50.804;7.126;2023-08-07T13:46:45;4.43;;;1.20;;
33954;SDS011;20233;50.804;7.126;2023-08-07T13:49:12;5.22;;;0.95;;
33954;SDS011;20233;50.804;7.126;2023-08-07T13:51:38;4.93;;;0.82;;
33954;SDS011;20233;50.804;7.126;2023-08-07T13:54:04;9.65;;;1.55;;
33954;SDS011;20233;50.804;7.126;2023-08-07T13:56:29;3.38;;;0.98;;
33954;SDS011;20233;50.804;7.126;2023-08-07T13:58:55;7.90;;;0.80;;
33954;SDS011;20233;50.804;7.126;2023-08-07T14:01:20;9.07;;;1.48;;
33954;SDS011;20233;50.804;7.126;2023-08-07T14:03:46;4.43;;;0.75;;
33954;SDS011;20233;50.804;7.126;2023-08-07T14:06:11;9.27;;;1.15;;
33954;SDS011;20233;50.804;7.126;2023-08-07T14:08:37;6.93;;;1.13;;
33954;SDS011;20233;50.804;7.126;2023-08-07T14:11:03;5.47;;;1.35;;
33954;SDS011;20233;50.804;7.126;2023-08-07T14:13:30;6.97;;;1.10;;
33954;SDS011;20233;50.804;7.126;2023-08-07T14:15:58;5.25;;;0.88;;
33954;SDS011;20233;50.804;7.126;2023-08-07T14:18:25;3.78;;;0.80;;
33954;SDS011;20233;50.804;7.126;2023-08-07T14:20:52;5.93;;;1.70;;
33954;SDS011;20233;50.804;7.126;2023-08-07T14:23:18;6.53;;;1.88;;
33954;SDS011;20233;50.804;7.126;2023-08-07T14:25:45;8.73;;;1.20;;
33954;SDS011;20233;50.804;7.126;2023-08-07T14:28:14;6.07;;;2.15;;
33954;SDS011;20233;50.804;7.126;2023-08-07T14:30:40;7.40;;;1.67;;
33954;SDS011;20233;50.804;7.126;2023-08-07T14:33:06;3.22;;;1.17;;
33954;SDS011;20233;50.804;7.126;2023-08-07T14:35:33;4.55;;;1.30;;
33954;SDS011;20233;50.804;7.126;2023-08-07T14:38:00;7.85;;;1.90;;
33954;SDS011;20233;50.804;7.126;2023-08-07T14:40:32;5.78;;;1.75;;
33954;SDS011;20233;50.804;7.126;2023-08-07T14:42:58;7.43;;;1.55;;
33954;SDS011;20233;50.804;7.126;2023-08-07T14:45:24;6.05;;;1.75;;
33954;SDS011;20233;50.804;7.126;2023-08-07T14:47:51;6.45;;;1.58;;